TimeEST,TemperatureF,Dew PointF,Humidity,Sea Level PressureIn,VisibilityMPH,Wind Direction,Wind SpeedMPH,Gust SpeedMPH,PrecipitationIn,Events,Conditions,WindDirDegrees,DateUTC
12:15 AM,32.0,21.2,64,30.16,10.0,WNW,9.2,-,N/A,,Mostly Cloudy,300,2013-02-22 05:15:00
12:35 AM,32.0,21.2,64,30.18,10.0,WNW,8.1,17.3,N/A,,Overcast,300,2013-02-22 05:35:00
12:55 AM,30.2,19.4,64,30.21,10.0,WNW,10.4,19.6,N/A,,Overcast,300,2013-02-22 05:55:00
1:15 AM,32.0,19.4,60,30.22,10.0,WNW,11.5,21.9,N/A,,Overcast,300,2013-02-22 06:15:00
1:35 AM,30.2,19.4,64,30.21,10.0,NW,12.7,23.0,N/A,,Overcast,310,2013-02-22 06:35:00
1:55 AM,32.0,19.4,60,30.21,10.0,WNW,11.5,23.0,N/A,,Overcast,300,2013-02-22 06:55:00
2:15 AM,32.0,21.2,64,30.21,10.0,NW,11.5,20.7,N/A,,Overcast,310,2013-02-22 07:15:00
2:35 AM,32.0,21.2,64,30.22,10.0,NW,10.4,16.1,N/A,,Overcast,310,2013-02-22 07:35:00
2:55 AM,32.0,21.2,64,30.23,10.0,NW,9.2,20.7,N/A,,Overcast,310,2013-02-22 07:55:00
3:15 AM,32.0,21.2,64,30.24,10.0,WNW,11.5,18.4,N/A,,Overcast,300,2013-02-22 08:15:00
3:35 AM,32.0,21.2,64,30.24,10.0,NW,10.4,18.4,N/A,,Overcast,310,2013-02-22 08:35:00
3:55 AM,32.0,21.2,64,30.25,10.0,NW,11.5,23.0,N/A,,Overcast,320,2013-02-22 08:55:00
4:15 AM,32.0,23.0,69,30.25,10.0,NW,11.5,19.6,N/A,,Overcast,310,2013-02-22 09:15:00
4:35 AM,32.0,23.0,69,30.26,10.0,NW,9.2,19.6,N/A,,Overcast,320,2013-02-22 09:35:00
4:55 AM,32.0,23.0,69,30.26,10.0,NW,11.5,18.4,N/A,,Overcast,320,2013-02-22 09:55:00
5:15 AM,32.0,24.8,75,30.27,10.0,NNW,11.5,18.4,N/A,,Overcast,330,2013-02-22 10:15:00
5:35 AM,32.0,24.8,75,30.29,10.0,NW,10.4,18.4,N/A,,Overcast,310,2013-02-22 10:35:00
5:55 AM,32.0,24.8,75,30.31,10.0,NW,9.2,17.3,N/A,,Overcast,310,2013-02-22 10:55:00
6:15 AM,32.0,23.0,69,30.31,10.0,WNW,6.9,-,N/A,,Overcast,300,2013-02-22 11:15:00
6:35 AM,32.0,23.0,69,30.33,10.0,NW,8.1,-,N/A,,Overcast,310,2013-02-22 11:35:00
6:55 AM,32.0,23.0,69,30.34,10.0,NW,6.9,-,N/A,,Overcast,310,2013-02-22 11:55:00
7:15 AM,32.0,23.0,69,30.35,10.0,WNW,10.4,-,N/A,,Overcast,300,2013-02-22 12:15:00
7:35 AM,32.0,23.0,69,30.36,10.0,WNW,6.9,-,N/A,,Overcast,300,2013-02-22 12:35:00
7:55 AM,32.0,23.0,69,30.37,10.0,WNW,9.2,-,N/A,,Overcast,300,2013-02-22 12:55:00
8:55 AM,33.8,26.6,75,30.37,10.0,NNW,9.2,16.1,N/A,,Overcast,330,2013-02-22 13:55:00
9:15 AM,33.8,26.6,75,30.37,10.0,NNW,9.2,21.9,N/A,,Overcast,340,2013-02-22 14:15:00
9:35 AM,33.8,26.6,75,30.36,10.0,NNW,8.1,-,N/A,,Overcast,330,2013-02-22 14:35:00
9:55 AM,35.6,28.4,75,30.37,10.0,North,11.5,20.7,N/A,,Mostly Cloudy,360,2013-02-22 14:55:00
10:15 AM,35.6,28.4,75,30.37,10.0,NNW,8.1,-,N/A,,Overcast,330,2013-02-22 15:15:00
10:35 AM,35.6,28.4,75,30.37,10.0,NNW,5.8,17.3,N/A,,Overcast,340,2013-02-22 15:35:00
10:55 AM,35.6,28.4,75,30.37,10.0,NNW,8.1,-,N/A,,Overcast,340,2013-02-22 15:55:00
11:15 AM,35.6,28.4,75,30.36,10.0,NNW,12.7,17.3,N/A,,Mostly Cloudy,340,2013-02-22 16:15:00
11:35 AM,37.4,26.6,65,30.36,10.0,North,9.2,16.1,N/A,,Mostly Cloudy,10,2013-02-22 16:35:00
11:55 AM,37.4,26.6,65,30.36,10.0,North,11.5,17.3,N/A,,Mostly Cloudy,360,2013-02-22 16:55:00
12:15 PM,37.4,26.6,65,30.36,10.0,North,11.5,-,N/A,,Overcast,360,2013-02-22 17:15:00
12:35 PM,37.4,26.6,65,30.36,10.0,North,9.2,18.4,N/A,,Overcast,360,2013-02-22 17:35:00
12:55 PM,37.4,26.6,65,30.36,10.0,North,6.9,-,N/A,,Overcast,360,2013-02-22 17:55:00
1:15 PM,37.4,26.6,65,30.36,10.0,North,11.5,16.1,N/A,,Overcast,360,2013-02-22 18:15:00
1:35 PM,37.4,26.6,65,30.37,10.0,NNW,5.8,-,N/A,,Overcast,340,2013-02-22 18:35:00
1:55 PM,37.4,26.6,65,30.37,10.0,North,5.8,-,N/A,,Mostly Cloudy,360,2013-02-22 18:55:00
2:15 PM,37.4,26.6,65,30.36,10.0,NNE,9.2,-,N/A,,Mostly Cloudy,20,2013-02-22 19:15:00
2:35 PM,37.4,26.6,65,30.36,10.0,North,5.8,-,N/A,,Mostly Cloudy,10,2013-02-22 19:35:00
2:55 PM,35.6,26.6,70,30.36,10.0,North,4.6,-,N/A,,Overcast,360,2013-02-22 19:55:00
3:15 PM,37.4,26.6,65,30.36,10.0,NNE,6.9,-,N/A,,Overcast,20,2013-02-22 20:15:00
3:35 PM,37.4,26.6,65,30.37,10.0,North,6.9,-,N/A,,Mostly Cloudy,10,2013-02-22 20:35:00
3:55 PM,37.4,26.6,65,30.37,10.0,North,3.5,-,N/A,,Mostly Cloudy,10,2013-02-22 20:55:00
4:15 PM,37.4,26.6,65,30.36,10.0,NNE,6.9,-,N/A,,Mostly Cloudy,30,2013-02-22 21:15:00
4:35 PM,35.6,26.6,70,30.36,10.0,NNE,4.6,-,N/A,,Partly Cloudy,20,2013-02-22 21:35:00
4:55 PM,35.6,24.8,65,30.34,10.0,NE,6.9,-,N/A,,Partly Cloudy,40,2013-02-22 21:55:00
5:15 PM,35.6,26.6,70,30.35,10.0,NE,4.6,-,N/A,,Scattered Clouds,40,2013-02-22 22:15:00
5:35 PM,35.6,26.6,70,30.35,10.0,NE,6.9,-,N/A,,Mostly Cloudy,50,2013-02-22 22:35:00
5:55 PM,35.6,26.6,70,30.35,10.0,NE,5.8,-,N/A,,Overcast,50,2013-02-22 22:55:00
6:15 PM,35.6,26.6,70,30.36,10.0,ENE,4.6,-,N/A,,Overcast,70,2013-02-22 23:15:00
6:35 PM,35.6,26.6,70,30.37,10.0,NE,3.5,-,N/A,,Overcast,50,2013-02-22 23:35:00
6:55 PM,35.6,26.6,70,30.36,10.0,NE,5.8,-,N/A,,Overcast,50,2013-02-22 23:55:00
7:15 PM,35.6,26.6,70,30.37,10.0,East,3.5,-,N/A,,Overcast,90,2013-02-23 00:15:00
7:55 PM,35.6,26.6,70,30.37,10.0,East,4.6,-,N/A,,Overcast,90,2013-02-23 00:55:00
8:15 PM,35.6,26.6,70,30.36,10.0,East,4.6,-,N/A,,Overcast,80,2013-02-23 01:15:00
8:35 PM,35.6,26.6,70,30.36,10.0,Calm,Calm,-,N/A,,Overcast,0,2013-02-23 01:35:00
8:55 PM,35.6,26.6,70,30.38,10.0,Calm,Calm,-,N/A,,Overcast,0,2013-02-23 01:55:00
9:15 PM,33.8,28.4,81,30.37,10.0,Calm,Calm,-,N/A,,Overcast,0,2013-02-23 02:15:00
9:55 PM,33.8,28.4,81,30.37,10.0,Calm,Calm,-,N/A,,Overcast,0,2013-02-23 02:55:00
10:15 PM,33.8,28.4,81,30.36,10.0,Calm,Calm,-,N/A,,Overcast,0,2013-02-23 03:15:00
10:35 PM,33.8,28.4,81,30.36,10.0,West,3.5,-,N/A,,Overcast,260,2013-02-23 03:35:00
10:55 PM,33.8,28.4,81,30.36,10.0,Calm,Calm,-,N/A,,Overcast,0,2013-02-23 03:55:00
11:15 PM,33.8,28.4,81,30.36,10.0,Calm,Calm,-,N/A,,Overcast,0,2013-02-23 04:15:00
11:35 PM,33.8,28.4,81,30.36,10.0,Calm,Calm,-,N/A,,Overcast,0,2013-02-23 04:35:00
11:55 PM,33.8,28.4,81,30.36,10.0,Calm,Calm,-,N/A,,Overcast,0,2013-02-23 04:55:00